createdAt,value
2023-02-27T00:01:06.279Z,102062.09
2023-02-27T00:03:34.372Z,102067.41
2023-02-27T00:06:02.542Z,102072.59
2023-02-27T00:08:32.886Z,102069.91
2023-02-27T00:11:01.094Z,102076.09
2023-02-27T00:13:30.648Z,102076.09
2023-02-27T00:15:58.928Z,102076.03
2023-02-27T00:18:27.084Z,102078.69
2023-02-27T00:20:55.081Z,102076.94
2023-02-27T00:23:23.176Z,102076.84
2023-02-27T00:25:52.402Z,102082.03
2023-02-27T00:28:20.544Z,102086.38
2023-02-27T00:30:50.161Z,102097.78
2023-02-27T00:33:18.787Z,102095.13
2023-02-27T00:35:47.075Z,102100.50
2023-02-27T00:38:15.166Z,102096.03
2023-02-27T00:40:43.375Z,102099.38
2023-02-27T00:43:11.561Z,102101.94
2023-02-27T00:45:40.003Z,102101.81
2023-02-27T00:48:09.615Z,102110.47
2023-02-27T00:50:37.626Z,102117.38
2023-02-27T00:53:05.759Z,102125.22
2023-02-27T00:55:34.034Z,102114.66
2023-02-27T00:58:02.602Z,102110.38
2023-02-27T01:00:30.714Z,102120.50
2023-02-27T01:02:58.923Z,102127.69
2023-02-27T01:05:28.951Z,102120.53
2023-02-27T01:07:57.049Z,102118.00
2023-02-27T01:10:25.301Z,102112.78
2023-02-27T01:12:53.408Z,102113.88
2023-02-27T01:15:21.652Z,102107.91
2023-02-27T01:17:49.719Z,102098.41
2023-02-27T01:20:17.795Z,102104.66
2023-02-27T01:22:48.226Z,102109.06
2023-02-27T01:25:17.090Z,102113.47
2023-02-27T01:27:45.187Z,102111.72
2023-02-27T01:30:15.863Z,102110.09
2023-02-27T01:32:46.144Z,102107.59
2023-02-27T01:35:14.646Z,102112.09
2023-02-27T01:37:44.022Z,102104.94
2023-02-27T01:40:15.526Z,102103.88
2023-02-27T01:42:43.598Z,102103.59
2023-02-27T01:45:27.731Z,102111.22
2023-02-27T01:47:58.936Z,102107.31
2023-02-27T01:50:27.633Z,102109.78
2023-02-27T01:52:58.396Z,102108.81
2023-02-27T01:55:29.251Z,102109.63
2023-02-27T01:57:58.186Z,102107.81
2023-02-27T02:00:26.513Z,102105.94
2023-02-27T02:02:59.845Z,102117.31
2023-02-27T02:05:28.933Z,102119.75
2023-02-27T02:07:57.246Z,102116.16
2023-02-27T02:10:25.891Z,102110.84
2023-02-27T02:12:55.580Z,102114.34
2023-02-27T02:15:26.970Z,102118.75
2023-02-27T02:18:01.275Z,102114.34
2023-02-27T02:20:45.626Z,102119.75
2023-02-27T02:23:30.520Z,102112.81
2023-02-27T02:26:09.827Z,102110.38
2023-02-27T02:28:52.313Z,102111.41
2023-02-27T02:31:34.752Z,102110.59
2023-02-27T02:34:17.985Z,102106.19
2023-02-27T02:37:04.659Z,102103.66
2023-02-27T02:39:48.941Z,102101.94
2023-02-27T02:42:20.200Z,102101.22
2023-02-27T02:44:56.264Z,102114.53
2023-02-27T02:47:28.126Z,102108.38
2023-02-27T02:49:58.115Z,102108.50
2023-02-27T02:52:31.005Z,102113.88
2023-02-27T02:55:05.116Z,102120.09
2023-02-27T02:57:35.626Z,102122.00
2023-02-27T03:00:07.451Z,102116.94
2023-02-27T03:02:40.124Z,102114.38
2023-02-27T03:05:10.036Z,102123.16
2023-02-27T03:07:41.259Z,102128.47
2023-02-27T03:10:14.437Z,102126.63
2023-02-27T03:12:47.032Z,102128.25
2023-02-27T03:15:18.673Z,102132.53
2023-02-27T03:17:48.762Z,102127.19
2023-02-27T03:20:20.306Z,102136.06
2023-02-27T03:22:49.510Z,102136.09
2023-02-27T03:25:19.390Z,102134.47
2023-02-27T03:27:54.417Z,102130.22
2023-02-27T03:30:27.382Z,102126.72
2023-02-27T03:32:59.121Z,102133.94
2023-02-27T03:35:30.688Z,102131.50
2023-02-27T03:38:01.236Z,102132.56
2023-02-27T03:40:34.671Z,102127.38
2023-02-27T03:43:11.842Z,102123.97
2023-02-27T03:45:55.910Z,102126.69
2023-02-27T03:48:24.332Z,102131.19
2023-02-27T03:50:52.586Z,102123.41
2023-02-27T03:53:24.623Z,102120.06
2023-02-27T03:55:54.948Z,102113.13
2023-02-27T03:58:23.258Z,102120.25
2023-02-27T04:00:51.666Z,102121.97
2023-02-27T04:03:21.448Z,102121.16
2023-02-27T04:05:50.885Z,102119.53
2023-02-27T04:08:32.863Z,102123.06
2023-02-27T04:11:11.946Z,102123.97
2023-02-27T04:13:45.690Z,102124.94
2023-02-27T04:16:22.036Z,102126.56
2023-02-27T04:18:56.965Z,102123.75
2023-02-27T04:21:29.544Z,102130.66
2023-02-27T04:23:59.988Z,102129.59
2023-02-27T04:26:31.891Z,102127.81
2023-02-27T04:29:05.089Z,102132.16
2023-02-27T04:31:40.268Z,102131.28
2023-02-27T04:34:11.852Z,102128.75
2023-02-27T04:36:42.841Z,102135.75
2023-02-27T04:39:18.149Z,102134.84
2023-02-27T04:41:49.663Z,102133.06
2023-02-27T04:44:20.454Z,102138.28
2023-02-27T04:46:49.474Z,102141.59
2023-02-27T04:49:19.913Z,102134.47
2023-02-27T04:51:52.047Z,102134.47
2023-02-27T04:54:22.784Z,102130.81
2023-02-27T04:56:54.065Z,102137.72
2023-02-27T04:59:24.319Z,102142.03
2023-02-27T05:01:55.756Z,102141.06
2023-02-27T05:04:26.602Z,102146.31
2023-02-27T05:06:56.152Z,102152.50
2023-02-27T05:09:28.188Z,102150.72
2023-02-27T05:12:00.626Z,102144.56
2023-02-27T05:14:31.468Z,102148.25
2023-02-27T05:17:04.017Z,102139.38
2023-02-27T05:19:33.111Z,102138.31
2023-02-27T05:22:05.988Z,102133.78
2023-02-27T05:24:37.521Z,102141.69
2023-02-27T05:27:20.598Z,102137.34
2023-02-27T05:29:51.331Z,102141.84
2023-02-27T05:32:23.961Z,102141.00
2023-02-27T05:34:54.276Z,102138.34
2023-02-27T05:37:24.692Z,102133.94
2023-02-27T05:39:53.442Z,102143.59
2023-02-27T05:42:24.894Z,102140.91
2023-02-27T05:44:57.499Z,102148.78
2023-02-27T05:47:28.823Z,102142.53
2023-02-27T05:50:01.220Z,102142.66
2023-02-27T05:52:30.837Z,102147.94
2023-02-27T05:55:02.212Z,102146.19
2023-02-27T05:57:33.150Z,102138.31
2023-02-27T06:00:06.365Z,102138.34
2023-02-27T06:02:40.220Z,102137.66
2023-02-27T06:05:10.759Z,102146.63
2023-02-27T06:07:39.360Z,102140.53
2023-02-27T06:10:08.276Z,102150.50
2023-02-27T06:12:36.344Z,102148.91
2023-02-27T06:15:06.445Z,102147.97
2023-02-27T06:17:34.989Z,102145.25
2023-02-27T06:20:03.482Z,102140.84
2023-02-27T06:22:31.665Z,102140.78
2023-02-27T06:24:59.774Z,102139.94
2023-02-27T06:27:28.038Z,102137.41
2023-02-27T06:29:58.095Z,102135.66
2023-02-27T06:32:28.142Z,102134.84
2023-02-27T06:34:56.238Z,102138.41
2023-02-27T06:37:24.299Z,102142.06
2023-02-27T06:39:52.480Z,102135.06
2023-02-27T06:42:20.764Z,102136.88
2023-02-27T06:44:48.890Z,102136.00
2023-02-27T06:47:16.855Z,102132.50
2023-02-27T06:49:46.346Z,102142.16
2023-02-27T06:52:14.525Z,102140.41
2023-02-27T06:54:42.650Z,102147.38
2023-02-27T06:57:10.923Z,102157.03
2023-02-27T06:59:39.283Z,102157.91
2023-02-27T07:02:07.660Z,102161.66
2023-02-27T07:04:35.834Z,102161.25
2023-02-27T07:07:32.293Z,102169.75
2023-02-27T07:09:53.462Z,102176.44
2023-02-27T07:12:21.635Z,102177.03
2023-02-27T07:14:49.701Z,102177.66
2023-02-27T07:17:17.930Z,102180.03
2023-02-27T07:19:46.477Z,102185.91
2023-02-27T07:22:16.033Z,102198.06
2023-02-27T07:24:44.209Z,102197.88
2023-02-27T07:27:12.364Z,102198.50
2023-02-27T07:29:40.489Z,102206.25
2023-02-27T07:32:08.589Z,102209.53
2023-02-27T07:34:36.648Z,102218.06
2023-02-27T07:37:04.767Z,102218.56
2023-02-27T07:39:34.381Z,102220.91
2023-02-27T07:42:02.581Z,102225.88
2023-02-27T07:44:30.633Z,102230.88
2023-02-27T07:46:58.830Z,102238.44
2023-02-27T07:49:26.927Z,102244.28
2023-02-27T07:51:55.034Z,102240.31
2023-02-27T07:54:23.488Z,102242.59
2023-02-27T07:56:53.069Z,102243.13
2023-02-27T07:59:21.294Z,102248.13
2023-02-27T08:01:49.362Z,102245.19
2023-02-27T08:04:17.553Z,102253.72
2023-02-27T08:06:45.622Z,102251.56
2023-02-27T08:09:13.798Z,102256.50
2023-02-27T08:11:42.021Z,102254.44
2023-02-27T08:14:11.656Z,102253.25
2023-02-27T08:16:39.809Z,102257.44
2023-02-27T08:19:08.419Z,102256.25
2023-02-27T08:21:36.511Z,102256.91
2023-02-27T08:24:04.760Z,102255.72
2023-02-27T08:26:32.832Z,102266.16
2023-02-27T08:29:00.892Z,102267.69
2023-02-27T08:31:30.513Z,102267.50
2023-02-27T08:34:09.561Z,102272.56
2023-02-27T08:36:38.919Z,102268.69
2023-02-27T08:39:07.439Z,102262.19
2023-02-27T08:41:35.577Z,102265.47
2023-02-27T08:44:03.915Z,102265.13
2023-02-27T08:46:33.527Z,102255.75
2023-02-27T08:49:01.780Z,102260.59
2023-02-27T08:51:30.211Z,102262.72
2023-02-27T08:53:59.244Z,102266.78
2023-02-27T08:56:28.376Z,102273.41
2023-02-27T08:58:57.026Z,102271.25
2023-02-27T09:01:27.431Z,102275.25
2023-02-27T09:03:57.752Z,102277.53
2023-02-27T09:06:26.569Z,102279.94
2023-02-27T09:08:54.673Z,102276.84
2023-02-27T09:11:23.077Z,102277.50
2023-02-27T09:13:52.136Z,102283.28
2023-02-27T09:16:20.425Z,102285.63
2023-02-27T09:18:49.062Z,102285.25
2023-02-27T09:21:18.828Z,102276.03
2023-02-27T09:23:48.839Z,102279.25
2023-02-27T09:26:17.632Z,102273.63
2023-02-27T09:28:45.804Z,102276.84
2023-02-27T09:31:13.975Z,102271.22
2023-02-27T09:33:42.207Z,102280.72
2023-02-27T09:36:10.391Z,102281.28
2023-02-27T09:38:41.417Z,102282.69
2023-02-27T09:41:23.240Z,102286.03
2023-02-27T09:43:52.392Z,102278.78
2023-02-27T09:46:22.429Z,102274.84
2023-02-27T09:48:52.621Z,102272.72
2023-02-27T09:51:21.148Z,102275.78
2023-02-27T09:53:51.614Z,102274.78
2023-02-27T09:56:23.544Z,102285.16
2023-02-27T09:58:54.724Z,102284.03
2023-02-27T10:01:24.816Z,102274.66
2023-02-27T10:04:03.754Z,102282.38
2023-02-27T10:06:35.261Z,102275.75
2023-02-27T10:09:11.112Z,102273.88
2023-02-27T10:11:44.892Z,102284.94
2023-02-27T10:14:18.970Z,102283.84
2023-02-27T10:16:48.918Z,102278.22
2023-02-27T10:19:20.172Z,102268.91
2023-02-27T10:21:49.705Z,102274.72
2023-02-27T10:24:24.714Z,102269.97
2023-02-27T10:26:54.785Z,102269.47
2023-02-27T10:29:28.738Z,102268.28
2023-02-27T10:31:59.007Z,102273.19
2023-02-27T10:34:29.338Z,102278.09
2023-02-27T10:36:58.125Z,102279.47
2023-02-27T10:39:29.639Z,102276.47
2023-02-27T10:42:00.997Z,102276.91
2023-02-27T10:44:29.278Z,102278.28
2023-02-27T10:46:57.395Z,102267.81
2023-02-27T10:49:25.619Z,102261.31
2023-02-27T10:52:06.074Z,102260.81
2023-02-27T10:54:35.849Z,102257.84
2023-02-27T10:57:05.618Z,102256.53
2023-02-27T10:59:35.101Z,102245.53
2023-02-27T11:02:05.278Z,102245.34
2023-02-27T11:04:34.877Z,102242.72
2023-02-27T11:07:04.384Z,102239.72
2023-02-27T11:09:33.422Z,102236.00
2023-02-27T11:12:14.436Z,102221.38
2023-02-27T11:14:50.393Z,102223.91
2023-02-27T11:17:26.579Z,102218.09
2023-02-27T11:19:54.728Z,102203.00
2023-02-27T11:22:24.671Z,102203.81
2023-02-27T11:24:53.541Z,102199.41
2023-02-27T11:27:26.796Z,102199.06
2023-02-27T11:29:59.348Z,102211.22
2023-02-27T11:32:28.789Z,102198.47
2023-02-27T11:34:57.175Z,102193.38
2023-02-27T11:37:28.711Z,102192.63
2023-02-27T11:40:00.862Z,102188.28
2023-02-27T11:42:32.693Z,102189.56
2023-02-27T11:45:02.250Z,102175.41
2023-02-27T11:47:33.523Z,102175.09
2023-02-27T11:50:10.447Z,102172.34
2023-02-27T11:52:43.349Z,102175.56
2023-02-27T11:55:16.189Z,102173.09
2023-02-27T11:57:46.928Z,102173.53
2023-02-27T12:00:23.680Z,102185.00
2023-02-27T12:02:57.258Z,102187.56
2023-02-27T12:05:27.490Z,102182.09
2023-02-27T12:07:57.617Z,102187.88
2023-02-27T12:10:27.643Z,102184.56
2023-02-27T12:12:59.853Z,102179.38
2023-02-27T12:15:30.878Z,102182.81
2023-02-27T12:18:04.857Z,102178.94
2023-02-27T12:20:36.606Z,102172.72
2023-02-27T12:23:07.542Z,102164.75
2023-02-27T12:25:38.491Z,102159.53
2023-02-27T12:28:14.510Z,102163.00
2023-02-27T12:30:46.337Z,102165.38
2023-02-27T12:33:17.802Z,102160.44
2023-02-27T12:35:47.941Z,102165.13
2023-02-27T12:38:16.384Z,102159.09
2023-02-27T12:40:48.011Z,102148.66
2023-02-27T12:43:30.955Z,102146.81
2023-02-27T12:46:17.230Z,102142.03
2023-02-27T12:48:53.929Z,102144.25
2023-02-27T12:51:30.179Z,102149.97
2023-02-27T12:54:05.163Z,102150.69
2023-02-27T12:56:37.491Z,102146.75
2023-02-27T12:59:09.743Z,102149.00
2023-02-27T13:01:43.179Z,102152.16
2023-02-27T13:04:19.422Z,102149.94
2023-02-27T13:06:51.239Z,102150.69
2023-02-27T13:09:27.137Z,102154.84
2023-02-27T13:11:59.752Z,102151.00
2023-02-27T13:14:31.460Z,102143.44
2023-02-27T13:17:02.248Z,102145.84
2023-02-27T13:19:34.470Z,102141.59
2023-02-27T13:22:07.382Z,102150.25
2023-02-27T13:24:36.110Z,102149.69
2023-02-27T13:27:08.019Z,102162.53
2023-02-27T13:29:38.270Z,102157.91
2023-02-27T13:32:21.449Z,102162.53
2023-02-27T13:34:55.452Z,102161.38
2023-02-27T13:37:23.565Z,102152.88
2023-02-27T13:39:56.268Z,102153.03
2023-02-27T13:42:43.329Z,102159.59
2023-02-27T13:45:26.243Z,102163.41
2023-02-27T13:47:56.791Z,102155.88
2023-02-27T13:50:43.576Z,102159.00
2023-02-27T13:53:17.246Z,102166.66
2023-02-27T13:55:45.626Z,102166.19
2023-02-27T13:58:23.401Z,102170.00
2023-02-27T14:00:56.693Z,102162.66
2023-02-27T14:03:26.610Z,102161.47
2023-02-27T14:05:57.020Z,102161.03
2023-02-27T14:08:27.941Z,102156.09
2023-02-27T14:10:58.543Z,102155.88
2023-02-27T14:13:54.937Z,102147.88
2023-02-27T14:16:38.011Z,102151.09
2023-02-27T14:19:27.451Z,102140.47
2023-02-27T14:21:57.416Z,102148.56
2023-02-27T14:24:30.118Z,102148.97
2023-02-27T14:26:58.754Z,102153.31
2023-02-27T14:29:31.360Z,102153.53
2023-02-27T14:32:01.720Z,102143.28
2023-02-27T14:34:30.350Z,102148.59
2023-02-27T14:37:00.340Z,102148.16
2023-02-27T14:39:31.817Z,102151.59
2023-02-27T14:42:06.765Z,102154.84
2023-02-27T14:44:39.235Z,102153.75
2023-02-27T14:47:07.470Z,102152.47
2023-02-27T14:49:36.822Z,102153.31
2023-02-27T14:52:15.586Z,102149.13
2023-02-27T14:54:45.427Z,102145.38
2023-02-27T14:57:16.941Z,102146.44
2023-02-27T14:59:46.160Z,102150.00
2023-02-27T15:02:18.089Z,102151.19
2023-02-27T15:04:47.212Z,102145.38
2023-02-27T15:07:20.149Z,102145.38
2023-02-27T15:09:50.088Z,102150.00
2023-02-27T15:12:19.137Z,102145.47
2023-02-27T15:14:48.747Z,102141.59
2023-02-27T15:17:18.022Z,102147.09
2023-02-27T15:19:49.866Z,102139.44
2023-02-27T15:22:36.185Z,102140.41
2023-02-27T15:25:09.293Z,102141.06
2023-02-27T15:27:38.466Z,102140.31
2023-02-27T15:30:08.377Z,102137.06
2023-02-27T15:32:37.769Z,102141.59
2023-02-27T15:35:06.992Z,102142.56
2023-02-27T15:37:35.781Z,102144.06
2023-02-27T15:40:05.952Z,102148.59
2023-02-27T15:42:37.709Z,102146.31
2023-02-27T15:45:06.764Z,102143.41
2023-02-27T15:47:35.520Z,102140.41
2023-02-27T15:50:10.424Z,102145.97
2023-02-27T15:52:42.165Z,102140.47
2023-02-27T15:55:15.099Z,102136.69
2023-02-27T15:58:00.602Z,102142.50
2023-02-27T16:00:31.237Z,102134.41
2023-02-27T16:02:59.870Z,102140.97
2023-02-27T16:05:30.813Z,102139.31
2023-02-27T16:07:58.882Z,102138.47
2023-02-27T16:10:29.252Z,102140.31
2023-02-27T16:12:58.709Z,102138.28
2023-02-27T16:15:31.448Z,102135.47
2023-02-27T16:18:04.494Z,102136.44
2023-02-27T16:20:38.163Z,102135.38
2023-02-27T16:23:07.359Z,102128.09
2023-02-27T16:25:35.473Z,102123.09
2023-02-27T16:28:05.342Z,102123.09
2023-02-27T16:30:33.369Z,102126.00
2023-02-27T16:33:02.985Z,102122.34
2023-02-27T16:35:31.281Z,102123.00
2023-02-27T16:38:03.639Z,102125.69
2023-02-27T16:40:32.164Z,102121.69
2023-02-27T16:43:01.453Z,102126.56
2023-02-27T16:45:32.317Z,102118.50
2023-02-27T16:48:01.284Z,102131.25
2023-02-27T16:50:31.163Z,102123.41
2023-02-27T16:52:59.276Z,102135.34
2023-02-27T16:55:27.709Z,102130.38
2023-02-27T16:57:56.163Z,102133.38
2023-02-27T17:00:24.426Z,102135.28
2023-02-27T17:02:54.257Z,102132.06
2023-02-27T17:05:24.341Z,102135.91
2023-02-27T17:07:52.555Z,102137.63
2023-02-27T17:10:22.214Z,102142.44
2023-02-27T17:12:50.394Z,102140.72
2023-02-27T17:15:18.678Z,102143.59
2023-02-27T17:17:47.037Z,102142.84
2023-02-27T17:20:16.752Z,102149.38
2023-02-27T17:22:45.702Z,102152.28
2023-02-27T17:25:14.458Z,102153.41
2023-02-27T17:27:43.304Z,102152.09
2023-02-27T17:30:12.114Z,102159.75
2023-02-27T17:32:40.345Z,102155.25
2023-02-27T17:35:09.023Z,102167.03
2023-02-27T17:37:39.130Z,102166.19
2023-02-27T17:40:08.357Z,102169.38
2023-02-27T17:42:36.980Z,102171.06
2023-02-27T17:45:06.558Z,102160.03
2023-02-27T17:47:35.140Z,102168.41
2023-02-27T17:50:04.209Z,102173.41
2023-02-27T17:52:32.431Z,102174.25
2023-02-27T17:55:03.561Z,102184.31
2023-02-27T17:57:31.781Z,102177.25
2023-02-27T17:59:59.842Z,102177.50
2023-02-27T18:02:27.995Z,102185.75
2023-02-27T18:04:56.052Z,102188.53
2023-02-27T18:07:24.378Z,102195.03
2023-02-27T18:09:52.569Z,102191.50
2023-02-27T18:12:22.386Z,102202.53
2023-02-27T18:14:50.843Z,102204.81
2023-02-27T18:17:19.202Z,102207.69
2023-02-27T18:19:47.200Z,102207.69
2023-02-27T18:22:16.365Z,102205.97
2023-02-27T18:24:44.592Z,102216.88
2023-02-27T18:27:12.950Z,102209.59
2023-02-27T18:29:42.811Z,102204.22
2023-02-27T18:32:11.331Z,102207.69
2023-02-27T18:34:40.768Z,102211.31
2023-02-27T18:37:08.961Z,102201.72
2023-02-27T18:39:37.142Z,102208.03
2023-02-27T18:42:06.790Z,102211.50
2023-02-27T18:44:34.988Z,102214.19
2023-02-27T18:47:04.795Z,102213.25
2023-02-27T18:49:32.987Z,102218.63
2023-02-27T18:52:01.204Z,102215.72
2023-02-27T18:54:29.692Z,102227.09
2023-02-27T18:56:57.732Z,102235.25
2023-02-27T18:59:25.945Z,102233.72
2023-02-27T19:01:54.111Z,102233.72
2023-02-27T19:04:25.517Z,102228.34
2023-02-27T19:06:54.037Z,102235.44
2023-02-27T19:09:22.349Z,102236.84
2023-02-27T19:11:50.782Z,102236.47
2023-02-27T19:14:19.080Z,102228.53
2023-02-27T19:16:47.355Z,102234.84
2023-02-27T19:19:15.459Z,102234.09
2023-02-27T19:21:45.044Z,102234.38
2023-02-27T19:24:13.562Z,102243.97
2023-02-27T19:26:41.862Z,102239.44
2023-02-27T19:29:09.976Z,102229.75
2023-02-27T19:31:38.278Z,102233.22
2023-02-27T19:34:06.727Z,102239.44
2023-02-27T19:36:36.088Z,102246.56
2023-02-27T19:39:05.936Z,102248.53
2023-02-27T19:41:34.183Z,102248.53
2023-02-27T19:44:02.286Z,102250.56
2023-02-27T19:46:32.198Z,102253.03
2023-02-27T19:49:01.841Z,102254.00
2023-02-27T19:51:30.115Z,102259.16
2023-02-27T19:53:58.259Z,102250.56
2023-02-27T19:56:29.396Z,102254.84
2023-02-27T19:58:57.866Z,102256.75
2023-02-27T20:01:26.867Z,102256.06
2023-02-27T20:03:56.049Z,102265.19
2023-02-27T20:06:25.565Z,102265.44
2023-02-27T20:08:54.239Z,102277.47
2023-02-27T20:11:22.718Z,102273.56
2023-02-27T20:13:52.935Z,102275.31
2023-02-27T20:16:24.069Z,102279.81
2023-02-27T20:18:52.580Z,102271.16
2023-02-27T20:21:21.670Z,102272.09
2023-02-27T20:23:50.825Z,102275.84
2023-02-27T20:26:20.045Z,102270.34
2023-02-27T20:28:48.616Z,102271.81
2023-02-27T20:31:19.306Z,102273.59
2023-02-27T20:33:47.599Z,102265.47
2023-02-27T20:36:16.175Z,102270.72
2023-02-27T20:38:44.788Z,102278.38
2023-02-27T20:41:14.653Z,102278.97
2023-02-27T20:43:44.340Z,102276.38
2023-02-27T20:46:13.592Z,102280.16
2023-02-27T20:48:43.884Z,102288.13
2023-02-27T20:51:12.979Z,102282.75
2023-02-27T20:53:42.152Z,102284.69
2023-02-27T20:56:11.275Z,102289.25
2023-02-27T20:58:39.892Z,102298.16
2023-02-27T21:01:11.941Z,102294.47
2023-02-27T21:03:41.174Z,102289.94
2023-02-27T21:06:12.930Z,102295.22
2023-02-27T21:08:42.308Z,102292.63
2023-02-27T21:11:11.032Z,102301.69
2023-02-27T21:13:39.803Z,102305.31
2023-02-27T21:16:13.730Z,102297.47
2023-02-27T21:18:43.865Z,102298.50
2023-02-27T21:21:20.341Z,102298.34
2023-02-27T21:23:54.018Z,102297.47
2023-02-27T21:26:24.810Z,102289.69
2023-02-27T21:28:53.444Z,102296.00
2023-02-27T21:31:28.874Z,102301.53
2023-02-27T21:33:59.118Z,102300.06
2023-02-27T21:36:29.328Z,102301.81
2023-02-27T21:38:58.072Z,102302.16
2023-02-27T21:41:30.771Z,102300.50
2023-02-27T21:44:01.202Z,102304.31
2023-02-27T21:46:29.903Z,102306.09
2023-02-27T21:48:58.724Z,102307.16
2023-02-27T21:51:40.005Z,102309.91
2023-02-27T21:54:15.497Z,102309.13
2023-02-27T21:56:45.539Z,102308.34
2023-02-27T21:59:15.655Z,102311.97
2023-02-27T22:01:48.763Z,102315.41
2023-02-27T22:04:18.275Z,102311.72
2023-02-27T22:06:51.351Z,102314.31
2023-02-27T22:09:22.422Z,102320.72
2023-02-27T22:11:51.574Z,102320.78
2023-02-27T22:14:19.973Z,102320.94
2023-02-27T22:16:49.835Z,102319.38
2023-02-27T22:19:22.092Z,102323.97
2023-02-27T22:21:52.210Z,102332.50
2023-02-27T22:24:21.364Z,102328.09
2023-02-27T22:26:51.867Z,102329.91
2023-02-27T22:29:21.804Z,102337.84
2023-02-27T22:31:50.137Z,102333.56
2023-02-27T22:34:19.470Z,102330.06
2023-02-27T22:36:53.114Z,102323.88
2023-02-27T22:39:25.303Z,102324.97
2023-02-27T22:41:56.960Z,102333.16
2023-02-27T22:44:27.201Z,102326.25
2023-02-27T22:46:56.830Z,102332.44
2023-02-27T22:49:25.274Z,102336.00
2023-02-27T22:51:57.180Z,102329.59
2023-02-27T22:54:26.881Z,102329.69
2023-02-27T22:56:57.958Z,102344.81
2023-02-27T22:59:30.923Z,102342.06
2023-02-27T23:02:02.081Z,102343.78
2023-02-27T23:04:30.830Z,102339.22
2023-02-27T23:07:00.583Z,102339.22
2023-02-27T23:09:30.474Z,102344.56
2023-02-27T23:12:02.257Z,102343.53
2023-02-27T23:14:32.082Z,102346.31
2023-02-27T23:17:00.561Z,102338.69
2023-02-27T23:19:28.769Z,102340.09
2023-02-27T23:21:57.022Z,102343.53
2023-02-27T23:24:25.090Z,102353.41
2023-02-27T23:26:55.048Z,102356.56
2023-02-27T23:29:24.058Z,102365.28
2023-02-27T23:31:52.830Z,102367.03
2023-02-27T23:34:21.337Z,102366.25
2023-02-27T23:36:49.946Z,102367.16
2023-02-27T23:39:18.022Z,102364.41
2023-02-27T23:41:46.058Z,102368.56
2023-02-27T23:44:15.900Z,102379.47
2023-02-27T23:46:44.772Z,102364.38
2023-02-27T23:49:14.472Z,102368.75
2023-02-27T23:51:42.618Z,102372.41
2023-02-27T23:54:11.926Z,102372.53
2023-02-27T23:56:40.124Z,102374.28
2023-02-27T23:59:11.282Z,102379.63
